LEAM

Almería International Airport

Almería, Spain
TAF LEAM 150800Z 1509/1609 06011KT 9999 FEW040 SCT090 TX21/1515Z TN14/1605Z
Issued Valid From Valid To
Nov-15 @ 08:00 UTC
(5 hours ago)
Nov-15 @ 09:00 UTC
(4 hours ago)
Nov-16 @ 09:00 UTC
(in 20 hours)
Nov-15 @ 09:00 to Nov-16 @ 09:00
TAF LEAM 150800Z 1509/1609 06011KT 9999 FEW040 SCT090 TX21/1515Z TN14/1605Z
Wind Visibility Clouds
60° at 11 knots 10,000+ meters
  • Few at 4,000' AGL
  • Scattered at 9,000' AGL
TAF LEAM 150800Z 1509/1609 06011KT 9999 FEW040 SCT090 TX21/1515Z TN14/1605Z
Issued Nov-15 @ 08:00 UTC
(5 hours ago)
Valid From Nov-15 @ 09:00 UTC
(4 hours ago)
Valid To Nov-16 @ 09:00 UTC
(in 20 hours)
Nov-15 @ 09:00 - Nov-16 @ 09:00
Wind Visibility
60° at 11 knots 10,000+ meters
Clouds
  • Few at 4,000' AGL
  • Scattered at 9,000' AGL